Fair View, Colorado
Current Conditions -  °F | °C
As of 10:53 PM on Sunday 19 Oct 2014 (Local Time) from KLHX Reporting Station
Clear Clear  
Wind Chill: 53°   Ceiling: Unl
Heat Index: 53°   Visibility: 10mi
Dew Point: 43°   Wind: 8mph
Humidity: 69%   Direction: 50°NE
Pressure: 30.11"   Gusts: NA
Location:  37.8368°N, 103.544°W
Report Text: KLHX 200453Z AUTO 05007KT 10SM CLR 12/06 A3011 RMK AO2 SLP159 T01170061
Loading
Personal Weather Stations






























Interactive Weather Map
Tropical Storm Tracking
New forecast layout! Learn more

10-Day Weather Forecast

Advertisements
Track Severe Weather on mobile